createdAt,value
2023-03-15T00:01:09.007Z,2.60
2023-03-15T00:03:56.526Z,2.60
2023-03-15T00:06:45.235Z,2.60
2023-03-15T00:09:32.354Z,2.50
2023-03-15T00:12:19.909Z,2.50
2023-03-15T00:15:08.396Z,2.40
2023-03-15T00:17:55.533Z,2.50
2023-03-15T00:20:43.291Z,2.50
2023-03-15T00:23:32.020Z,2.40
2023-03-15T00:26:19.387Z,2.40
2023-03-15T00:29:07.061Z,2.40
2023-03-15T00:31:54.188Z,2.40
2023-03-15T00:34:42.332Z,2.30
2023-03-15T00:37:29.856Z,2.30
2023-03-15T00:40:18.804Z,2.30
2023-03-15T00:43:06.466Z,2.20
2023-03-15T00:45:54.994Z,2.10
2023-03-15T00:48:42.501Z,2.10
2023-03-15T00:51:30.804Z,2.00
2023-03-15T00:54:18.036Z,2.00
2023-03-15T00:57:07.018Z,1.90
2023-03-15T00:59:55.041Z,1.90
2023-03-15T01:02:42.385Z,1.90
2023-03-15T01:05:29.798Z,1.90
2023-03-15T01:08:17.036Z,1.90
2023-03-15T01:11:05.092Z,2.00
2023-03-15T01:13:55.056Z,1.90
2023-03-15T01:16:42.780Z,1.90
2023-03-15T01:19:30.978Z,1.90
2023-03-15T01:22:18.483Z,1.90
2023-03-15T01:25:06.569Z,1.80
2023-03-15T01:27:54.085Z,1.80
2023-03-15T01:30:49.884Z,1.80
2023-03-15T01:33:37.052Z,1.70
2023-03-15T01:36:25.044Z,1.80
2023-03-15T01:39:12.375Z,1.80
2023-03-15T01:42:03.962Z,1.70
2023-03-15T01:44:57.412Z,1.80
2023-03-15T01:47:46.228Z,1.70
2023-03-15T01:50:33.979Z,1.80
2023-03-15T01:53:21.616Z,1.70
2023-03-15T01:56:10.329Z,1.70
2023-03-15T01:59:00.277Z,1.70
2023-03-15T02:01:49.206Z,1.70
2023-03-15T02:04:42.424Z,1.60
2023-03-15T02:07:34.508Z,1.70
2023-03-15T02:10:28.678Z,1.60
2023-03-15T02:13:19.732Z,1.60
2023-03-15T02:16:08.053Z,1.50
2023-03-15T02:19:02.657Z,1.60
2023-03-15T02:22:01.589Z,1.60
2023-03-15T02:24:58.177Z,1.50
2023-03-15T02:27:46.917Z,1.50
2023-03-15T02:30:35.880Z,1.40
2023-03-15T02:33:27.073Z,1.40
2023-03-15T02:36:20.408Z,1.30
2023-03-15T02:39:19.025Z,1.20
2023-03-15T02:42:06.915Z,1.30
2023-03-15T02:44:56.739Z,1.20
2023-03-15T02:47:45.752Z,1.30
2023-03-15T02:50:33.053Z,1.30
2023-03-15T02:53:20.147Z,1.30
2023-03-15T02:56:08.332Z,1.30
2023-03-15T02:58:56.137Z,1.20
2023-03-15T03:01:45.858Z,1.20
2023-03-15T03:04:33.288Z,1.20
2023-03-15T03:07:20.855Z,1.20
2023-03-15T03:10:21.722Z,1.20
2023-03-15T03:13:12.963Z,1.20
2023-03-15T03:16:00.331Z,1.20
2023-03-15T03:18:52.528Z,1.30
2023-03-15T03:21:39.945Z,1.30
2023-03-15T03:24:27.695Z,1.30
2023-03-15T03:27:16.040Z,1.30
2023-03-15T03:30:06.002Z,1.20
2023-03-15T03:32:53.734Z,1.20
2023-03-15T03:35:43.114Z,1.20
2023-03-15T03:38:30.860Z,1.20
2023-03-15T03:41:22.100Z,1.30
2023-03-15T03:44:10.555Z,1.30
2023-03-15T03:46:58.999Z,1.30
2023-03-15T03:49:46.543Z,1.20
2023-03-15T03:52:35.384Z,1.20
2023-03-15T03:55:29.233Z,1.20
2023-03-15T03:58:16.576Z,1.20
2023-03-15T04:01:09.590Z,1.20
2023-03-15T04:03:58.497Z,1.20
2023-03-15T04:06:46.568Z,1.10
2023-03-15T04:09:38.529Z,1.10
2023-03-15T04:12:26.774Z,1.10
2023-03-15T04:15:15.979Z,1.00
2023-03-15T04:18:05.808Z,1.00
2023-03-15T04:20:58.213Z,1.00
2023-03-15T04:23:45.557Z,1.10
2023-03-15T04:27:00.146Z,1.00
2023-03-15T04:30:08.858Z,1.00
2023-03-15T04:33:16.864Z,1.00
2023-03-15T04:36:18.434Z,1.00
2023-03-15T04:39:25.883Z,1.00
2023-03-15T04:42:34.235Z,1.00
2023-03-15T04:45:24.570Z,0.90
2023-03-15T04:48:20.930Z,0.90
2023-03-15T04:51:34.421Z,0.90
2023-03-15T04:54:42.047Z,0.90
2023-03-15T04:57:49.331Z,1.00
2023-03-15T05:00:55.691Z,0.90
2023-03-15T05:03:54.929Z,0.90
2023-03-15T05:06:44.872Z,0.90
2023-03-15T05:10:07.994Z,0.90
2023-03-15T05:13:08.146Z,0.90
2023-03-15T05:16:14.626Z,0.90
2023-03-15T05:19:20.239Z,0.90
2023-03-15T05:22:25.911Z,0.90
2023-03-15T05:25:33.917Z,0.90
2023-03-15T05:28:45.308Z,0.90
2023-03-15T05:31:54.651Z,1.00
2023-03-15T05:34:50.900Z,0.90
2023-03-15T05:37:45.394Z,0.90
2023-03-15T05:40:53.660Z,0.90
2023-03-15T05:44:07.582Z,1.00
2023-03-15T05:47:21.121Z,1.10
2023-03-15T05:50:27.977Z,1.20
2023-03-15T05:53:25.448Z,1.20
2023-03-15T05:56:42.821Z,1.30
2023-03-15T05:59:50.302Z,1.20
2023-03-15T06:02:50.304Z,1.30
2023-03-15T06:05:49.516Z,1.40
2023-03-15T06:08:41.831Z,1.50
2023-03-15T06:11:29.209Z,1.50
2023-03-15T06:14:17.408Z,1.60
2023-03-15T06:17:12.720Z,1.60
2023-03-15T06:20:03.654Z,1.80
2023-03-15T06:22:51.242Z,1.80
2023-03-15T06:25:55.431Z,1.80
2023-03-15T06:28:43.380Z,1.80
2023-03-15T06:31:31.403Z,1.80
2023-03-15T06:34:26.077Z,1.80
2023-03-15T06:37:22.726Z,1.80
2023-03-15T06:40:17.264Z,1.80
2023-03-15T06:43:06.685Z,1.80
2023-03-15T06:45:55.985Z,1.80
2023-03-15T06:48:43.557Z,1.80
2023-03-15T06:51:33.704Z,1.70
2023-03-15T06:54:20.769Z,1.80
2023-03-15T06:57:08.324Z,1.80
2023-03-15T06:59:55.583Z,1.80
2023-03-15T07:02:43.261Z,2.00
2023-03-15T07:05:31.025Z,2.30
2023-03-15T07:08:20.388Z,2.50
2023-03-15T07:11:07.584Z,2.70
2023-03-15T07:13:55.210Z,2.70
2023-03-15T07:16:42.794Z,2.90
2023-03-15T07:19:30.236Z,3.00
2023-03-15T07:22:17.594Z,3.00
2023-03-15T07:25:07.500Z,2.90
2023-03-15T07:27:55.346Z,2.90
2023-03-15T07:30:42.862Z,2.90
2023-03-15T07:33:32.411Z,2.90
2023-03-15T07:36:19.612Z,2.90
2023-03-15T07:39:06.961Z,2.90
2023-03-15T07:41:55.657Z,3.00
2023-03-15T07:44:51.409Z,3.10
2023-03-15T07:47:38.984Z,3.20
2023-03-15T07:50:26.468Z,3.30
2023-03-15T07:53:14.226Z,3.50
2023-03-15T07:56:02.041Z,3.90
2023-03-15T07:58:51.043Z,4.30
2023-03-15T08:01:38.599Z,4.60
2023-03-15T08:04:26.185Z,4.70
2023-03-15T08:07:13.522Z,4.60
2023-03-15T08:10:01.685Z,4.50
2023-03-15T08:12:48.998Z,4.50
2023-03-15T08:15:37.772Z,4.30
2023-03-15T08:18:25.070Z,4.30
2023-03-15T08:21:12.523Z,4.30
2023-03-15T08:23:59.938Z,4.10
2023-03-15T08:26:47.493Z,4.10
2023-03-15T08:29:34.985Z,4.10
2023-03-15T08:32:23.641Z,4.20
2023-03-15T08:35:15.485Z,4.50
2023-03-15T08:38:03.617Z,4.50
2023-03-15T08:40:50.840Z,4.60
2023-03-15T08:43:38.199Z,4.40
2023-03-15T08:46:26.170Z,4.40
2023-03-15T08:49:14.948Z,4.50
2023-03-15T08:52:02.326Z,4.40
2023-03-15T08:54:49.775Z,4.00
2023-03-15T08:57:37.350Z,4.30
2023-03-15T09:00:25.474Z,4.10
2023-03-15T09:03:13.427Z,4.10
2023-03-15T09:06:01.918Z,4.10
2023-03-15T09:08:49.097Z,4.10
2023-03-15T09:11:36.373Z,4.20
2023-03-15T09:14:23.675Z,4.20
2023-03-15T09:17:11.590Z,4.00
2023-03-15T09:19:58.999Z,4.30
2023-03-15T09:22:51.971Z,4.30
2023-03-15T09:25:39.200Z,4.30
2023-03-15T09:28:26.600Z,4.40
2023-03-15T09:31:14.012Z,4.70
2023-03-15T09:34:01.496Z,4.90
2023-03-15T09:36:52.926Z,4.80
2023-03-15T09:39:41.853Z,4.90
2023-03-15T09:42:38.420Z,5.00
2023-03-15T09:45:31.988Z,5.00
2023-03-15T09:48:22.993Z,5.20
2023-03-15T09:51:15.626Z,5.20
2023-03-15T09:54:06.572Z,5.30
2023-03-15T09:57:02.072Z,5.20
2023-03-15T09:59:53.812Z,5.00
2023-03-15T10:02:46.790Z,5.00
2023-03-15T10:05:41.302Z,5.00
2023-03-15T10:08:29.322Z,5.20
2023-03-15T10:11:24.192Z,5.30
2023-03-15T10:14:25.805Z,5.10
2023-03-15T10:17:15.678Z,5.20
2023-03-15T10:20:09.611Z,5.30
2023-03-15T10:23:01.370Z,5.10
2023-03-15T10:25:52.605Z,5.50
2023-03-15T10:28:40.817Z,6.00
2023-03-15T10:31:44.060Z,6.50
2023-03-15T10:34:32.298Z,7.30
2023-03-15T10:37:20.287Z,7.60
2023-03-15T10:40:15.574Z,7.60
2023-03-15T10:43:03.234Z,7.60
2023-03-15T10:46:02.595Z,7.30
2023-03-15T10:48:58.743Z,7.10
2023-03-15T10:51:47.705Z,7.10
2023-03-15T10:54:35.900Z,6.30
2023-03-15T10:57:28.760Z,5.40
2023-03-15T11:00:31.083Z,5.20
2023-03-15T11:03:20.865Z,5.10
2023-03-15T11:06:22.550Z,5.30
2023-03-15T11:09:12.076Z,6.00
2023-03-15T11:12:01.934Z,6.10
2023-03-15T11:14:57.360Z,6.00
2023-03-15T11:17:46.979Z,6.70
2023-03-15T11:20:37.417Z,6.50
2023-03-15T11:23:29.412Z,6.70
2023-03-15T11:26:31.396Z,6.60
2023-03-15T11:29:24.039Z,6.50
2023-03-15T11:32:17.145Z,6.20
2023-03-15T11:35:08.869Z,6.10
2023-03-15T11:38:12.970Z,6.10
2023-03-15T11:41:11.955Z,5.90
2023-03-15T11:44:07.416Z,5.90
2023-03-15T11:47:00.338Z,5.60
2023-03-15T11:49:52.489Z,5.30
2023-03-15T11:52:40.072Z,5.30
2023-03-15T11:55:29.176Z,5.60
2023-03-15T11:58:33.801Z,5.80
2023-03-15T12:01:27.794Z,6.30
2023-03-15T12:04:40.654Z,6.30
2023-03-15T12:07:37.772Z,6.70
2023-03-15T12:10:46.550Z,6.90
2023-03-15T12:13:37.260Z,6.90
2023-03-15T12:16:28.033Z,6.80
2023-03-15T12:19:18.216Z,7.00
2023-03-15T12:22:05.307Z,7.00
2023-03-15T12:24:52.734Z,7.00
2023-03-15T12:27:47.813Z,6.40
2023-03-15T12:30:43.448Z,6.60
2023-03-15T12:33:33.129Z,6.50
2023-03-15T12:36:31.832Z,6.90
2023-03-15T12:39:36.618Z,6.90
2023-03-15T12:43:10.511Z,7.00
2023-03-15T12:45:59.168Z,6.80
2023-03-15T12:49:06.510Z,6.80
2023-03-15T12:51:59.349Z,7.00
2023-03-15T12:54:50.981Z,7.30
2023-03-15T12:57:46.151Z,6.90
2023-03-15T13:00:36.109Z,7.10
2023-03-15T13:03:28.021Z,7.00
2023-03-15T13:06:44.201Z,7.30
2023-03-15T13:09:51.933Z,7.50
2023-03-15T13:12:44.260Z,7.40
2023-03-15T13:15:38.979Z,7.60
2023-03-15T13:18:34.316Z,7.70
2023-03-15T13:21:27.348Z,7.40
2023-03-15T13:24:23.385Z,7.60
2023-03-15T13:27:18.527Z,7.30
2023-03-15T13:30:25.905Z,7.50
2023-03-15T13:33:22.000Z,7.40
2023-03-15T13:36:16.099Z,7.50
2023-03-15T13:39:03.543Z,7.20
2023-03-15T13:41:51.753Z,6.60
2023-03-15T13:44:39.040Z,6.70
2023-03-15T13:47:27.727Z,6.70
2023-03-15T13:50:17.518Z,6.70
2023-03-15T13:53:06.685Z,6.80
2023-03-15T13:55:55.633Z,6.80
2023-03-15T13:58:43.811Z,6.70
2023-03-15T14:01:35.415Z,6.50
2023-03-15T14:04:24.317Z,6.30
2023-03-15T14:07:27.240Z,5.50
2023-03-15T14:10:29.832Z,5.50
2023-03-15T14:13:24.516Z,5.60
2023-03-15T14:16:16.447Z,6.00
2023-03-15T14:19:17.591Z,6.00
2023-03-15T14:22:14.461Z,6.10
2023-03-15T14:25:01.889Z,6.10
2023-03-15T14:27:50.697Z,6.20
2023-03-15T14:30:38.808Z,6.30
2023-03-15T14:33:32.366Z,6.30
2023-03-15T14:36:25.005Z,6.70
2023-03-15T14:39:21.020Z,6.40
2023-03-15T14:42:11.167Z,6.50
2023-03-15T14:45:00.185Z,6.60
2023-03-15T14:47:57.144Z,6.60
2023-03-15T14:50:45.998Z,6.70
2023-03-15T14:53:36.781Z,7.00
2023-03-15T14:56:24.052Z,7.00
2023-03-15T14:59:13.249Z,6.70
2023-03-15T15:02:03.260Z,6.60
2023-03-15T15:04:50.872Z,6.80
2023-03-15T15:07:38.111Z,6.80
2023-03-15T15:10:26.164Z,6.70
2023-03-15T15:13:18.445Z,6.70
2023-03-15T15:16:06.721Z,6.70
2023-03-15T15:18:55.463Z,6.90
2023-03-15T15:21:44.132Z,7.10
2023-03-15T15:24:32.478Z,6.90
2023-03-15T15:27:19.894Z,6.70
2023-03-15T15:30:11.280Z,6.50
2023-03-15T15:33:04.336Z,6.40
2023-03-15T15:35:54.853Z,6.50
2023-03-15T15:38:42.533Z,6.60
2023-03-15T15:41:31.503Z,6.40
2023-03-15T15:44:20.798Z,6.60
2023-03-15T15:47:08.204Z,6.50
2023-03-15T15:49:55.526Z,6.40
2023-03-15T15:52:47.140Z,6.30
2023-03-15T15:55:36.711Z,6.20
2023-03-15T15:58:24.256Z,6.30
2023-03-15T16:01:14.438Z,6.40
2023-03-15T16:04:03.613Z,6.50
2023-03-15T16:06:53.721Z,6.50
2023-03-15T16:09:44.369Z,6.60
2023-03-15T16:12:32.737Z,6.30
2023-03-15T16:15:20.260Z,6.20
2023-03-15T16:18:10.909Z,6.20
2023-03-15T16:20:58.201Z,5.90
2023-03-15T16:23:47.201Z,5.10
2023-03-15T16:26:37.564Z,4.40
2023-03-15T16:29:27.237Z,4.10
2023-03-15T16:32:20.885Z,3.80
2023-03-15T16:35:15.415Z,3.90
2023-03-15T16:38:07.151Z,3.90
2023-03-15T16:40:54.410Z,4.10
2023-03-15T16:43:43.459Z,4.30
2023-03-15T16:46:30.982Z,4.20
2023-03-15T16:49:18.286Z,4.10
2023-03-15T16:52:07.940Z,4.10
2023-03-15T16:54:55.364Z,4.10
2023-03-15T16:57:42.861Z,4.30
2023-03-15T17:00:31.855Z,4.10
2023-03-15T17:03:19.125Z,4.10
2023-03-15T17:06:07.437Z,4.10
2023-03-15T17:08:59.441Z,4.10
2023-03-15T17:11:50.821Z,4.10
2023-03-15T17:14:38.827Z,4.10
2023-03-15T17:17:32.432Z,4.10
2023-03-15T17:20:22.512Z,4.30
2023-03-15T17:23:10.229Z,4.20
2023-03-15T17:25:57.907Z,4.00
2023-03-15T17:28:45.743Z,4.10
2023-03-15T17:31:34.488Z,4.20
2023-03-15T17:34:22.954Z,4.20
2023-03-15T17:37:12.108Z,4.20
2023-03-15T17:40:01.009Z,4.20
2023-03-15T17:42:49.124Z,4.30
2023-03-15T17:45:36.334Z,4.20
2023-03-15T17:48:23.417Z,4.10
2023-03-15T17:51:23.153Z,4.20
2023-03-15T17:54:14.408Z,4.10
2023-03-15T17:57:01.820Z,4.20
2023-03-15T17:59:49.246Z,4.10
2023-03-15T18:02:37.035Z,4.10
2023-03-15T18:05:26.635Z,4.10
2023-03-15T18:08:18.213Z,4.00
2023-03-15T18:11:16.025Z,3.90
2023-03-15T18:14:04.216Z,4.00
2023-03-15T18:16:51.605Z,4.00
2023-03-15T18:19:39.090Z,4.00
2023-03-15T18:22:26.373Z,4.00
2023-03-15T18:25:19.806Z,4.00
2023-03-15T18:28:07.312Z,4.00
2023-03-15T18:30:54.743Z,3.90
2023-03-15T18:33:42.601Z,3.80
2023-03-15T18:36:30.065Z,3.70
2023-03-15T18:39:17.743Z,3.80
2023-03-15T18:42:06.768Z,3.70
2023-03-15T18:44:54.085Z,3.70
2023-03-15T18:47:41.536Z,3.80
2023-03-15T18:50:30.310Z,3.70
2023-03-15T18:53:17.527Z,3.70
2023-03-15T18:56:05.243Z,3.60
2023-03-15T18:58:55.391Z,3.60
2023-03-15T19:01:43.163Z,3.60
2023-03-15T19:04:30.405Z,3.60
2023-03-15T19:07:17.748Z,3.40
2023-03-15T19:10:06.112Z,3.40
2023-03-15T19:12:54.246Z,3.40
2023-03-15T19:15:43.876Z,3.40
2023-03-15T19:18:32.331Z,3.40
2023-03-15T19:21:19.692Z,3.40
2023-03-15T19:24:07.919Z,3.40
2023-03-15T19:26:55.346Z,3.30
2023-03-15T19:29:42.749Z,3.40
2023-03-15T19:32:31.794Z,3.40
2023-03-15T19:35:19.865Z,3.40
2023-03-15T19:38:07.222Z,3.40
2023-03-15T19:40:56.732Z,3.30
2023-03-15T19:43:44.065Z,3.30
2023-03-15T19:46:31.418Z,3.30
2023-03-15T19:49:20.616Z,3.20
2023-03-15T19:52:08.670Z,3.10
2023-03-15T19:54:56.203Z,3.10
2023-03-15T19:57:45.116Z,3.10
2023-03-15T20:00:32.551Z,3.00
2023-03-15T20:03:19.979Z,3.10
2023-03-15T20:06:12.391Z,3.10
2023-03-15T20:08:59.492Z,3.00
2023-03-15T20:11:47.061Z,2.90
2023-03-15T20:14:34.613Z,2.90
2023-03-15T20:17:22.248Z,2.80
2023-03-15T20:20:11.730Z,2.80
2023-03-15T20:23:00.583Z,2.60
2023-03-15T20:25:48.677Z,2.60
2023-03-15T20:28:36.161Z,2.60
2023-03-15T20:31:24.014Z,2.60
2023-03-15T20:34:12.088Z,2.60
2023-03-15T20:36:59.500Z,2.50
2023-03-15T20:39:48.333Z,2.40
2023-03-15T20:42:35.609Z,2.40
2023-03-15T20:45:23.068Z,2.50
2023-03-15T20:48:10.188Z,2.40
2023-03-15T20:50:58.317Z,2.50
2023-03-15T20:53:45.853Z,2.40
2023-03-15T20:56:34.703Z,2.40
2023-03-15T20:59:22.639Z,2.40
2023-03-15T21:02:11.126Z,2.40
2023-03-15T21:04:58.222Z,2.40
2023-03-15T21:07:46.531Z,2.40
2023-03-15T21:10:33.877Z,2.40
2023-03-15T21:13:23.180Z,2.40
2023-03-15T21:16:12.052Z,2.30
2023-03-15T21:18:59.457Z,2.40
2023-03-15T21:21:46.852Z,2.30
2023-03-15T21:24:40.620Z,2.30
2023-03-15T21:27:30.748Z,2.40
2023-03-15T21:30:19.744Z,2.30
2023-03-15T21:33:06.963Z,2.30
2023-03-15T21:35:55.687Z,2.30
2023-03-15T21:38:42.872Z,2.20
2023-03-15T21:41:31.679Z,2.20
2023-03-15T21:44:18.831Z,2.20
2023-03-15T21:47:07.684Z,2.10
2023-03-15T21:49:55.427Z,2.10
2023-03-15T21:52:44.817Z,2.10
2023-03-15T21:55:33.793Z,2.10
2023-03-15T21:58:21.099Z,2.10
2023-03-15T22:01:09.812Z,2.00
2023-03-15T22:03:58.293Z,2.00
2023-03-15T22:06:45.441Z,2.10
2023-03-15T22:09:33.050Z,2.00
2023-03-15T22:12:20.267Z,2.00
2023-03-15T22:15:08.996Z,2.00
2023-03-15T22:17:56.575Z,2.00
2023-03-15T22:20:47.594Z,1.90
2023-03-15T22:23:35.133Z,1.90
2023-03-15T22:26:23.146Z,1.90
2023-03-15T22:29:10.981Z,1.90
2023-03-15T22:31:58.140Z,1.90
2023-03-15T22:34:46.923Z,1.80
2023-03-15T22:37:35.787Z,1.80
2023-03-15T22:40:24.888Z,1.80
2023-03-15T22:43:12.725Z,1.70
2023-03-15T22:46:00.258Z,1.70
2023-03-15T22:48:47.404Z,1.80
2023-03-15T22:51:34.834Z,1.70
2023-03-15T22:54:24.560Z,1.70
2023-03-15T22:57:12.450Z,1.60
2023-03-15T22:59:59.633Z,1.70
2023-03-15T23:02:47.413Z,1.60
2023-03-15T23:05:35.626Z,1.50
2023-03-15T23:08:24.188Z,1.50
2023-03-15T23:11:13.098Z,1.50
2023-03-15T23:14:00.579Z,1.50
2023-03-15T23:16:48.033Z,1.50
2023-03-15T23:19:35.445Z,1.50
2023-03-15T23:22:22.852Z,1.40
2023-03-15T23:25:11.724Z,1.40
2023-03-15T23:28:00.598Z,1.30
2023-03-15T23:30:47.638Z,1.30
2023-03-15T23:33:35.029Z,1.30
2023-03-15T23:36:22.143Z,1.40
2023-03-15T23:39:09.585Z,1.30
2023-03-15T23:41:57.919Z,1.20
2023-03-15T23:44:46.770Z,1.20
2023-03-15T23:47:34.084Z,1.30
2023-03-15T23:50:22.077Z,1.30
2023-03-15T23:53:09.348Z,1.20
2023-03-15T23:55:56.946Z,1.20
2023-03-15T23:58:44.412Z,1.20
